createdAt,value
2023-03-30T00:00:01.394Z,17.12
2023-03-30T00:02:32.234Z,17.10
2023-03-30T00:05:03.406Z,17.09
2023-03-30T00:07:30.827Z,17.08
2023-03-30T00:09:58.898Z,17.06
2023-03-30T00:12:25.757Z,17.03
2023-03-30T00:14:52.677Z,17.01
2023-03-30T00:17:19.524Z,17.01
2023-03-30T00:19:46.443Z,16.98
2023-03-30T00:22:13.343Z,16.96
2023-03-30T00:24:40.200Z,16.95
2023-03-30T00:27:07.241Z,16.93
2023-03-30T00:29:34.163Z,16.92
2023-03-30T00:32:01.482Z,16.90
2023-03-30T00:34:28.311Z,16.88
2023-03-30T00:36:56.990Z,16.87
2023-03-30T00:39:26.896Z,16.87
2023-03-30T00:41:53.727Z,16.88
2023-03-30T00:44:39.287Z,16.88
2023-03-30T00:47:06.369Z,16.86
2023-03-30T00:49:35.011Z,16.85
2023-03-30T00:52:02.757Z,16.82
2023-03-30T00:54:30.099Z,16.81
2023-03-30T00:56:56.991Z,16.79
2023-03-30T00:59:23.907Z,16.78
2023-03-30T01:01:50.872Z,16.76
2023-03-30T01:04:17.699Z,16.79
2023-03-30T01:06:46.716Z,16.77
2023-03-30T01:09:14.194Z,16.78
2023-03-30T01:11:42.387Z,16.76
2023-03-30T01:14:10.629Z,16.77
2023-03-30T01:17:01.906Z,16.76
2023-03-30T01:19:37.768Z,16.74
2023-03-30T01:22:23.158Z,16.72
2023-03-30T01:25:10.415Z,16.71
2023-03-30T01:27:55.936Z,16.70
2023-03-30T01:30:22.742Z,16.71
2023-03-30T01:32:55.857Z,16.69
2023-03-30T01:35:26.070Z,16.69
2023-03-30T01:38:05.049Z,16.68
2023-03-30T01:40:44.894Z,16.67
2023-03-30T01:43:19.827Z,16.67
2023-03-30T01:45:58.512Z,16.64
2023-03-30T01:48:45.754Z,16.64
2023-03-30T01:51:24.381Z,16.64
2023-03-30T01:53:57.485Z,16.64
2023-03-30T01:56:28.933Z,16.65
2023-03-30T01:58:59.189Z,16.66
2023-03-30T02:01:28.009Z,16.65
2023-03-30T02:03:58.040Z,16.65
2023-03-30T02:06:40.224Z,16.65
2023-03-30T02:09:09.229Z,16.64
2023-03-30T02:11:38.509Z,16.60
2023-03-30T02:14:06.207Z,16.64
2023-03-30T02:16:40.903Z,16.64
2023-03-30T02:19:08.128Z,16.63
2023-03-30T02:21:35.648Z,16.64
2023-03-30T02:24:03.957Z,16.64
2023-03-30T02:26:31.141Z,16.64
2023-03-30T02:28:58.320Z,16.63
2023-03-30T02:31:25.170Z,16.63
2023-03-30T02:34:15.311Z,16.63
2023-03-30T02:36:51.183Z,16.65
2023-03-30T02:39:18.058Z,16.64
2023-03-30T02:42:00.951Z,16.65
2023-03-30T02:44:40.005Z,16.64
2023-03-30T02:47:25.591Z,16.63
2023-03-30T02:50:01.893Z,16.65
2023-03-30T02:52:47.145Z,16.63
2023-03-30T02:55:17.346Z,16.63
2023-03-30T02:57:47.126Z,16.62
2023-03-30T03:00:32.784Z,16.62
2023-03-30T03:03:02.614Z,16.64
2023-03-30T03:05:29.674Z,16.64
2023-03-30T03:07:56.910Z,16.63
2023-03-30T03:10:23.781Z,16.65
2023-03-30T03:12:50.788Z,16.64
2023-03-30T03:15:17.629Z,16.64
2023-03-30T03:17:45.617Z,16.65
2023-03-30T03:20:12.510Z,16.66
2023-03-30T03:22:39.286Z,16.67
2023-03-30T03:25:06.280Z,16.66
2023-03-30T03:27:33.136Z,16.67
2023-03-30T03:29:59.929Z,16.67
2023-03-30T03:32:26.888Z,16.64
2023-03-30T03:34:54.058Z,16.71
2023-03-30T03:37:20.929Z,16.71
2023-03-30T03:39:47.698Z,16.72
2023-03-30T03:42:14.586Z,16.73
2023-03-30T03:44:41.450Z,16.73
2023-03-30T03:47:08.572Z,16.73
2023-03-30T03:49:35.579Z,16.73
2023-03-30T03:52:02.406Z,16.73
2023-03-30T03:54:29.214Z,16.75
2023-03-30T03:56:56.058Z,16.73
2023-03-30T03:59:22.909Z,16.75
2023-03-30T04:01:49.842Z,16.76
2023-03-30T04:04:17.156Z,16.76
2023-03-30T04:06:43.974Z,16.78
2023-03-30T04:09:10.898Z,16.79
2023-03-30T04:11:37.788Z,16.79
2023-03-30T04:14:04.588Z,16.80
2023-03-30T04:16:31.474Z,16.80
2023-03-30T04:18:58.432Z,16.80
2023-03-30T04:21:25.651Z,16.83
2023-03-30T04:23:52.616Z,16.83
2023-03-30T04:26:19.450Z,16.81
2023-03-30T04:28:47.273Z,16.82
2023-03-30T04:31:14.442Z,16.82
2023-03-30T04:34:01.950Z,16.80
2023-03-30T04:36:31.542Z,16.81
2023-03-30T04:39:01.068Z,16.82
2023-03-30T04:41:36.220Z,16.82
2023-03-30T04:44:07.763Z,16.84
2023-03-30T04:46:34.601Z,16.83
2023-03-30T04:49:01.507Z,16.84
2023-03-30T04:51:28.779Z,16.90
2023-03-30T04:53:55.883Z,16.89
2023-03-30T04:56:22.910Z,16.85
2023-03-30T04:58:49.719Z,16.87
2023-03-30T05:01:16.650Z,16.85
2023-03-30T05:03:43.793Z,16.96
2023-03-30T05:06:11.678Z,17.11
2023-03-30T05:08:39.982Z,17.22
2023-03-30T05:11:08.552Z,17.30
2023-03-30T05:13:35.325Z,17.35
2023-03-30T05:16:02.087Z,17.39
2023-03-30T05:18:28.892Z,17.38
2023-03-30T05:20:59.071Z,17.43
2023-03-30T05:23:26.630Z,17.40
2023-03-30T05:25:55.507Z,17.41
2023-03-30T05:28:22.756Z,17.46
2023-03-30T05:30:58.707Z,17.46
2023-03-30T05:33:25.562Z,17.48
2023-03-30T05:35:52.538Z,17.50
2023-03-30T05:38:19.502Z,17.30
2023-03-30T05:40:46.525Z,17.12
2023-03-30T05:43:13.391Z,17.23
2023-03-30T05:45:40.363Z,17.35
2023-03-30T05:48:07.467Z,17.41
2023-03-30T05:50:34.433Z,17.45
2023-03-30T05:53:01.915Z,17.48
2023-03-30T05:55:29.238Z,17.51
2023-03-30T05:57:57.165Z,17.54
2023-03-30T06:00:24.538Z,17.56
2023-03-30T06:02:52.532Z,17.58
2023-03-30T06:05:19.764Z,17.59
2023-03-30T06:07:49.476Z,17.61
2023-03-30T06:10:19.665Z,17.63
2023-03-30T06:12:46.523Z,17.64
2023-03-30T06:15:13.499Z,17.60
2023-03-30T06:17:40.400Z,17.63
2023-03-30T06:20:11.571Z,17.55
2023-03-30T06:22:39.223Z,17.27
2023-03-30T06:25:06.391Z,17.32
2023-03-30T06:27:33.362Z,17.38
2023-03-30T06:30:00.222Z,17.42
2023-03-30T06:32:29.882Z,17.43
2023-03-30T06:34:57.294Z,17.47
2023-03-30T06:37:24.413Z,17.46
2023-03-30T06:39:51.254Z,17.39
2023-03-30T06:42:18.205Z,17.33
2023-03-30T06:44:45.342Z,17.28
2023-03-30T06:47:12.483Z,17.29
2023-03-30T06:49:39.372Z,17.29
2023-03-30T06:52:08.194Z,17.32
2023-03-30T06:54:35.697Z,17.34
2023-03-30T06:57:02.632Z,17.35
2023-03-30T06:59:30.264Z,17.35
2023-03-30T07:01:58.425Z,17.34
2023-03-30T07:04:25.356Z,17.35
2023-03-30T07:06:52.650Z,17.37
2023-03-30T07:09:19.800Z,17.38
2023-03-30T07:11:47.138Z,17.36
2023-03-30T07:14:14.101Z,17.37
2023-03-30T07:16:41.297Z,17.37
2023-03-30T07:19:08.481Z,17.37
2023-03-30T07:21:35.359Z,17.40
2023-03-30T07:24:02.163Z,17.41
2023-03-30T07:26:29.712Z,17.44
2023-03-30T07:28:57.205Z,17.50
2023-03-30T07:31:24.882Z,17.52
2023-03-30T07:33:52.331Z,17.55
2023-03-30T07:36:20.040Z,17.58
2023-03-30T07:38:47.263Z,17.59
2023-03-30T07:41:16.139Z,17.61
2023-03-30T07:43:43.132Z,17.65
2023-03-30T07:46:12.520Z,17.66
2023-03-30T07:48:42.223Z,17.69
2023-03-30T07:51:10.797Z,17.70
2023-03-30T07:53:37.979Z,17.75
2023-03-30T07:56:05.973Z,17.79
2023-03-30T07:58:33.496Z,17.80
2023-03-30T08:01:03.097Z,17.81
2023-03-30T08:03:32.422Z,17.80
2023-03-30T08:06:01.299Z,17.79
2023-03-30T08:08:28.606Z,17.85
2023-03-30T08:13:45.117Z,17.94
2023-03-30T08:16:12.243Z,17.96
2023-03-30T08:18:41.751Z,17.99
2023-03-30T08:21:08.714Z,17.99
2023-03-30T08:23:35.678Z,18.00
2023-03-30T08:26:02.761Z,18.00
2023-03-30T08:28:29.687Z,17.98
2023-03-30T08:30:56.676Z,17.84
2023-03-30T08:33:24.650Z,17.83
2023-03-30T08:35:51.694Z,17.80
2023-03-30T08:38:19.414Z,17.82
2023-03-30T08:40:50.077Z,17.91
2023-03-30T08:43:30.291Z,18.02
2023-03-30T08:45:59.317Z,18.04
2023-03-30T08:48:28.044Z,18.05
2023-03-30T08:50:55.094Z,18.02
2023-03-30T08:53:22.567Z,18.07
2023-03-30T08:56:08.210Z,18.07
2023-03-30T08:58:35.142Z,18.10
2023-03-30T09:01:17.579Z,18.11
2023-03-30T09:04:05.083Z,18.15
2023-03-30T09:06:46.047Z,18.17
2023-03-30T09:09:14.501Z,18.15
2023-03-30T09:11:41.909Z,18.19
2023-03-30T09:14:13.202Z,18.16
2023-03-30T09:16:47.285Z,18.14
2023-03-30T09:19:25.499Z,18.15
2023-03-30T09:21:54.204Z,18.19
2023-03-30T09:24:26.213Z,18.21
2023-03-30T09:27:13.416Z,18.24
2023-03-30T09:29:52.265Z,18.29
2023-03-30T09:32:32.557Z,18.31
2023-03-30T09:35:01.227Z,18.32
2023-03-30T09:37:28.357Z,18.36
2023-03-30T09:39:55.683Z,18.38
2023-03-30T09:42:37.015Z,18.34
2023-03-30T09:45:40.920Z,18.31
2023-03-30T09:48:09.401Z,18.25
2023-03-30T09:50:43.458Z,18.25
2023-03-30T09:53:22.601Z,18.24
2023-03-30T09:55:59.112Z,18.21
2023-03-30T09:58:30.896Z,18.22
2023-03-30T10:01:08.820Z,18.25
2023-03-30T10:03:36.824Z,18.30
2023-03-30T10:06:09.169Z,18.35
2023-03-30T10:08:43.864Z,18.40
2023-03-30T10:11:12.149Z,18.43
2023-03-30T10:13:43.093Z,18.45
2023-03-30T10:16:25.354Z,18.51
2023-03-30T10:19:05.304Z,18.55
2023-03-30T10:21:39.307Z,18.54
2023-03-30T10:24:15.282Z,18.52
2023-03-30T10:26:47.041Z,18.55
2023-03-30T10:29:18.782Z,18.55
2023-03-30T10:31:51.496Z,18.59
2023-03-30T10:34:23.987Z,18.62
2023-03-30T10:36:55.075Z,18.71
2023-03-30T10:39:30.536Z,18.97
2023-03-30T10:42:02.055Z,19.16
2023-03-30T10:44:46.650Z,19.19
2023-03-30T10:47:50.867Z,19.08
2023-03-30T10:50:30.975Z,18.93
2023-03-30T10:53:33.448Z,18.82
2023-03-30T10:56:12.424Z,18.84
2023-03-30T10:58:42.150Z,18.84
2023-03-30T11:01:30.543Z,18.86
2023-03-30T11:04:16.036Z,18.89
2023-03-30T11:06:51.157Z,18.87
2023-03-30T11:09:27.807Z,18.84
2023-03-30T11:12:06.089Z,18.82
2023-03-30T11:14:53.614Z,18.83
2023-03-30T11:17:27.533Z,18.82
2023-03-30T11:19:58.622Z,18.82
2023-03-30T11:22:41.784Z,18.85
2023-03-30T11:25:21.396Z,18.84
2023-03-30T11:28:00.207Z,18.85
2023-03-30T11:30:30.565Z,18.84
2023-03-30T11:33:06.927Z,18.84
2023-03-30T11:35:56.308Z,18.89
2023-03-30T11:38:48.368Z,18.84
2023-03-30T11:41:23.897Z,18.81
2023-03-30T11:43:56.287Z,18.80
2023-03-30T11:46:40.776Z,18.76
2023-03-30T11:49:52.412Z,18.74
2023-03-30T11:52:36.192Z,18.75
2023-03-30T11:55:12.217Z,18.74
2023-03-30T11:58:00.052Z,18.73
2023-03-30T12:00:32.956Z,18.70
2023-03-30T12:03:14.203Z,18.70
2023-03-30T12:05:46.392Z,18.68
2023-03-30T12:08:21.411Z,18.66
2023-03-30T12:10:55.688Z,18.65
2023-03-30T12:13:22.955Z,18.65
2023-03-30T12:16:01.198Z,18.64
2023-03-30T12:18:40.385Z,18.61
2023-03-30T12:21:41.636Z,18.63
2023-03-30T12:24:34.548Z,18.63
2023-03-30T12:27:06.103Z,18.62
2023-03-30T12:30:15.337Z,18.37
2023-03-30T12:33:02.559Z,18.29
2023-03-30T12:35:48.513Z,18.24
2023-03-30T12:38:23.924Z,18.31
2023-03-30T12:41:14.845Z,18.41
2023-03-30T12:44:17.921Z,18.49
2023-03-30T12:47:12.979Z,18.47
2023-03-30T12:50:12.911Z,18.55
2023-03-30T12:53:03.805Z,18.65
2023-03-30T12:55:31.176Z,18.62
2023-03-30T12:58:17.532Z,18.73
2023-03-30T13:01:13.239Z,18.70
2023-03-30T13:03:53.241Z,18.47
2023-03-30T13:06:32.670Z,18.43
2023-03-30T13:09:08.623Z,18.36
2023-03-30T13:11:46.326Z,18.32
2023-03-30T13:14:39.659Z,18.25
2023-03-30T13:17:20.961Z,18.25
2023-03-30T13:20:26.178Z,18.37
2023-03-30T13:23:12.008Z,18.48
2023-03-30T13:25:50.210Z,18.51
2023-03-30T13:28:38.600Z,18.57
2023-03-30T13:31:27.337Z,18.62
2023-03-30T13:34:05.372Z,18.64
2023-03-30T13:36:38.334Z,18.68
2023-03-30T13:39:19.284Z,18.73
2023-03-30T13:41:56.145Z,18.73
2023-03-30T13:44:29.202Z,18.59
2023-03-30T13:47:14.604Z,18.44
2023-03-30T13:50:03.892Z,18.38
2023-03-30T13:52:38.374Z,18.31
2023-03-30T13:55:16.437Z,18.22
2023-03-30T13:57:44.994Z,18.12
2023-03-30T14:00:28.851Z,18.29
2023-03-30T14:02:56.373Z,18.37
2023-03-30T14:05:26.781Z,18.49
2023-03-30T14:07:58.582Z,18.55
2023-03-30T14:10:27.402Z,18.52
2023-03-30T14:12:57.107Z,18.38
2023-03-30T14:15:40.169Z,18.44
2023-03-30T14:18:13.595Z,18.55
2023-03-30T14:21:03.310Z,18.60
2023-03-30T14:23:40.972Z,18.67
2023-03-30T14:26:23.017Z,18.66
2023-03-30T14:28:57.837Z,18.71
2023-03-30T14:31:27.734Z,18.70
2023-03-30T14:33:55.423Z,18.71
2023-03-30T14:36:23.135Z,18.74
2023-03-30T14:38:53.634Z,18.75
2023-03-30T14:41:29.023Z,18.73
2023-03-30T14:44:08.368Z,18.61
2023-03-30T14:46:42.907Z,18.58
2023-03-30T14:49:30.654Z,18.51
2023-03-30T14:52:14.811Z,18.46
2023-03-30T14:54:48.777Z,18.43
2023-03-30T14:57:32.169Z,18.35
2023-03-30T15:00:25.316Z,18.32
2023-03-30T15:03:02.782Z,18.27
2023-03-30T15:05:34.431Z,18.24
2023-03-30T15:08:04.408Z,18.24
2023-03-30T15:10:44.505Z,18.22
2023-03-30T15:13:19.904Z,18.20
2023-03-30T15:15:47.152Z,18.21
2023-03-30T15:18:22.583Z,18.22
2023-03-30T15:20:51.291Z,18.23
2023-03-30T15:23:18.690Z,18.25
2023-03-30T15:25:46.277Z,18.31
2023-03-30T15:28:19.539Z,18.40
2023-03-30T15:30:53.099Z,18.43
2023-03-30T15:33:20.375Z,18.47
2023-03-30T15:35:52.113Z,18.52
2023-03-30T15:38:28.547Z,18.56
2023-03-30T15:40:55.621Z,18.58
2023-03-30T15:43:28.234Z,18.62
2023-03-30T15:46:05.844Z,18.67
2023-03-30T15:48:53.978Z,18.70
2023-03-30T15:51:36.434Z,18.69
2023-03-30T15:54:16.468Z,18.73
2023-03-30T15:57:13.616Z,18.76
2023-03-30T15:59:43.918Z,18.74
2023-03-30T16:02:21.388Z,18.75
2023-03-30T16:04:52.011Z,18.76
2023-03-30T16:07:27.385Z,18.72
2023-03-30T16:09:54.394Z,18.71
2023-03-30T16:12:28.109Z,18.73
2023-03-30T16:14:56.810Z,18.75
2023-03-30T16:17:24.130Z,18.75
2023-03-30T16:19:51.358Z,18.81
2023-03-30T16:22:18.743Z,18.76
2023-03-30T16:24:46.660Z,18.61
2023-03-30T16:27:15.378Z,18.43
2023-03-30T16:29:42.484Z,18.52
2023-03-30T16:32:09.735Z,18.55
2023-03-30T16:34:37.255Z,18.58
2023-03-30T16:37:04.249Z,18.62
2023-03-30T16:39:31.685Z,18.65
2023-03-30T16:41:58.687Z,18.65
2023-03-30T16:44:25.881Z,18.66
2023-03-30T16:46:54.084Z,18.68
2023-03-30T16:49:26.841Z,18.70
2023-03-30T16:51:57.522Z,18.71
2023-03-30T16:54:31.913Z,18.71
2023-03-30T16:57:03.823Z,18.75
2023-03-30T16:59:32.691Z,18.76
2023-03-30T17:02:00.683Z,18.74
2023-03-30T17:04:27.903Z,18.80
2023-03-30T17:06:55.322Z,18.82
2023-03-30T17:09:22.943Z,18.85
2023-03-30T17:11:51.219Z,18.87
2023-03-30T17:14:21.034Z,18.91
2023-03-30T17:16:48.115Z,18.95
2023-03-30T17:19:15.885Z,19.02
2023-03-30T17:21:44.343Z,19.10
2023-03-30T17:24:13.276Z,19.16
2023-03-30T17:26:41.475Z,19.27
2023-03-30T17:29:10.827Z,19.35
2023-03-30T17:31:39.103Z,19.49
2023-03-30T17:34:07.603Z,19.54
2023-03-30T17:36:34.680Z,19.63
2023-03-30T17:39:05.479Z,19.71
2023-03-30T17:41:34.038Z,19.68
2023-03-30T17:44:01.349Z,19.54
2023-03-30T17:46:28.672Z,19.38
2023-03-30T17:48:55.808Z,19.41
2023-03-30T17:51:22.871Z,19.48
2023-03-30T17:53:49.825Z,19.54
2023-03-30T17:56:17.109Z,19.50
2023-03-30T17:58:44.348Z,19.43
2023-03-30T18:01:13.253Z,19.37
2023-03-30T18:03:40.692Z,19.40
2023-03-30T18:06:08.614Z,19.38
2023-03-30T18:08:36.410Z,19.33
2023-03-30T18:11:04.689Z,19.30
2023-03-30T18:13:32.161Z,19.27
2023-03-30T18:16:00.739Z,19.27
2023-03-30T18:18:30.176Z,19.24
2023-03-30T18:21:05.558Z,19.22
2023-03-30T18:23:34.889Z,19.24
2023-03-30T18:26:04.244Z,19.23
2023-03-30T18:28:32.144Z,19.21
2023-03-30T18:31:01.099Z,19.24
2023-03-30T18:33:28.931Z,19.23
2023-03-30T18:36:05.363Z,19.21
2023-03-30T18:38:33.657Z,19.21
2023-03-30T18:41:01.848Z,19.17
2023-03-30T18:43:29.346Z,19.18
2023-03-30T18:46:01.043Z,19.15
2023-03-30T18:48:29.170Z,19.15
2023-03-30T18:50:57.063Z,19.13
2023-03-30T18:53:27.106Z,19.09
2023-03-30T18:55:58.261Z,19.09
2023-03-30T18:58:28.071Z,19.08
2023-03-30T19:00:56.280Z,19.05
2023-03-30T19:03:25.234Z,19.05
2023-03-30T19:05:52.508Z,19.06
2023-03-30T19:08:23.315Z,19.05
2023-03-30T19:10:53.424Z,19.01
2023-03-30T19:13:22.036Z,19.00
2023-03-30T19:15:51.396Z,18.97
2023-03-30T19:18:19.264Z,18.98
2023-03-30T19:20:50.358Z,18.94
2023-03-30T19:23:17.852Z,18.93
2023-03-30T19:25:45.978Z,18.93
2023-03-30T19:28:15.566Z,18.88
2023-03-30T19:30:45.379Z,18.91
2023-03-30T19:33:20.207Z,18.87
2023-03-30T19:35:47.702Z,18.86
2023-03-30T19:38:15.681Z,18.83
2023-03-30T19:40:43.655Z,18.81
2023-03-30T19:43:11.581Z,18.82
2023-03-30T19:45:42.367Z,18.76
2023-03-30T19:48:10.699Z,18.72
2023-03-30T19:50:40.097Z,18.68
2023-03-30T19:53:07.599Z,18.69
2023-03-30T19:55:35.495Z,18.65
2023-03-30T19:58:02.857Z,18.62
2023-03-30T20:00:33.069Z,18.59
2023-03-30T20:03:00.441Z,18.57
2023-03-30T20:05:27.834Z,18.52
2023-03-30T20:07:55.004Z,18.49
2023-03-30T20:10:25.310Z,18.45
2023-03-30T20:12:53.426Z,18.43
2023-03-30T20:15:22.296Z,18.40
2023-03-30T20:17:49.697Z,18.39
2023-03-30T20:20:23.286Z,18.35
2023-03-30T20:22:54.061Z,18.31
2023-03-30T20:25:22.206Z,18.29
2023-03-30T20:27:49.919Z,18.26
2023-03-30T20:30:17.539Z,18.26
2023-03-30T20:32:59.551Z,18.24
2023-03-30T20:35:32.484Z,18.25
2023-03-30T20:37:59.884Z,18.17
2023-03-30T20:40:27.855Z,18.18
2023-03-30T20:43:03.738Z,18.14
2023-03-30T20:45:31.504Z,18.12
2023-03-30T20:47:59.014Z,18.11
2023-03-30T20:50:26.169Z,18.07
2023-03-30T20:52:54.362Z,18.02
2023-03-30T20:55:21.885Z,18.01
2023-03-30T20:57:48.935Z,18.03
2023-03-30T21:00:16.720Z,18.13
2023-03-30T21:02:44.022Z,18.23
2023-03-30T21:05:11.302Z,18.25
2023-03-30T21:07:42.770Z,18.32
2023-03-30T21:10:11.948Z,18.32
2023-03-30T21:12:39.121Z,18.34
2023-03-30T21:15:10.203Z,18.39
2023-03-30T21:17:37.366Z,18.49
2023-03-30T21:20:09.647Z,18.50
2023-03-30T21:22:36.857Z,18.49
2023-03-30T21:25:04.148Z,18.49
2023-03-30T21:27:33.120Z,18.48
2023-03-30T21:30:00.294Z,18.50
2023-03-30T21:32:29.359Z,18.48
2023-03-30T21:34:58.422Z,18.48
2023-03-30T21:37:25.589Z,18.34
2023-03-30T21:39:53.692Z,18.27
2023-03-30T21:42:20.804Z,18.32
2023-03-30T21:44:48.011Z,18.33
2023-03-30T21:47:16.977Z,18.37
2023-03-30T21:49:44.313Z,18.40
2023-03-30T21:52:11.728Z,18.42
2023-03-30T21:54:38.805Z,18.48
2023-03-30T21:57:06.257Z,18.48
2023-03-30T21:59:33.268Z,18.44
2023-03-30T22:02:00.656Z,18.31
2023-03-30T22:04:28.009Z,18.22
2023-03-30T22:06:56.572Z,18.22
2023-03-30T22:09:23.985Z,18.26
2023-03-30T22:11:53.506Z,18.24
2023-03-30T22:14:20.819Z,18.09
2023-03-30T22:16:48.081Z,18.20
2023-03-30T22:19:15.344Z,18.25
2023-03-30T22:21:42.750Z,18.29
2023-03-30T22:24:12.382Z,18.30
2023-03-30T22:26:39.659Z,18.26
2023-03-30T22:29:07.114Z,18.25
2023-03-30T22:31:34.337Z,18.16
2023-03-30T22:34:01.493Z,18.11
2023-03-30T22:36:33.660Z,18.07
2023-03-30T22:39:02.557Z,18.04
2023-03-30T22:41:29.948Z,18.02
2023-03-30T22:43:58.712Z,17.99
2023-03-30T22:46:27.401Z,17.99
2023-03-30T22:48:56.235Z,17.95
2023-03-30T22:51:26.788Z,17.95
2023-03-30T22:54:00.252Z,17.94
2023-03-30T22:56:29.849Z,17.90
2023-03-30T22:58:57.495Z,17.88
2023-03-30T23:01:24.711Z,17.85
2023-03-30T23:03:53.532Z,17.86
2023-03-30T23:06:20.831Z,17.85
2023-03-30T23:08:49.174Z,17.82
2023-03-30T23:11:16.521Z,17.82
2023-03-30T23:13:43.624Z,17.77
2023-03-30T23:16:11.026Z,17.74
2023-03-30T23:18:38.660Z,17.73
2023-03-30T23:21:07.643Z,17.70
2023-03-30T23:23:38.679Z,17.68
2023-03-30T23:26:09.407Z,17.63
2023-03-30T23:28:40.730Z,17.60
2023-03-30T23:31:15.827Z,17.58
2023-03-30T23:33:43.741Z,17.55
2023-03-30T23:36:17.605Z,17.54
2023-03-30T23:38:45.716Z,17.53
2023-03-30T23:41:17.936Z,17.52
2023-03-30T23:43:46.142Z,17.56
2023-03-30T23:46:13.904Z,17.51
2023-03-30T23:48:41.534Z,17.48
2023-03-30T23:51:09.479Z,17.46
2023-03-30T23:53:40.561Z,17.41
2023-03-30T23:56:14.018Z,17.38
2023-03-30T23:58:41.762Z,17.38
